createdAt,value
2019-04-26T00:00:37.621Z,2.73
2019-04-26T00:03:05.884Z,2.77
2019-04-26T00:05:34.882Z,2.80
2019-04-26T00:08:00.331Z,2.97
2019-04-26T00:10:31.311Z,3.00
2019-04-26T00:13:01.535Z,3.13
2019-04-26T00:15:45.197Z,2.97
2019-04-26T00:18:12.731Z,2.77
2019-04-26T00:20:39.159Z,3.20
2019-04-26T00:23:05.449Z,2.90
2019-04-26T00:25:31.668Z,3.27
2019-04-26T00:27:57.979Z,3.00
2019-04-26T00:30:24.302Z,3.20
2019-04-26T00:32:50.797Z,2.90
2019-04-26T00:35:17.781Z,3.27
2019-04-26T00:37:44.008Z,3.30
2019-04-26T00:40:10.449Z,4.00
2019-04-26T00:42:38.777Z,3.60
2019-04-26T00:45:05.213Z,3.60
2019-04-26T00:47:32.645Z,3.37
2019-04-26T00:49:59.540Z,4.20
2019-04-26T00:52:27.284Z,4.33
2019-04-26T00:54:55.104Z,3.80
2019-04-26T00:57:22.472Z,3.70
2019-04-26T00:59:48.975Z,4.03
2019-04-26T01:02:20.702Z,4.43
2019-04-26T01:04:46.930Z,5.20
2019-04-26T01:07:13.248Z,4.87
2019-04-26T01:09:39.385Z,5.33
2019-04-26T01:12:05.602Z,5.33
2019-04-26T01:14:32.059Z,5.63
2019-04-26T01:16:58.417Z,6.27
2019-04-26T01:19:24.918Z,7.37
2019-04-26T01:21:57.839Z,6.70
2019-04-26T01:24:27.286Z,7.73
2019-04-26T01:26:57.293Z,7.20
2019-04-26T01:29:25.946Z,6.97
2019-04-26T01:31:58.712Z,7.60
2019-04-26T01:34:26.135Z,8.00
2019-04-26T01:36:54.528Z,7.70
2019-04-26T01:39:22.445Z,7.57
2019-04-26T01:41:51.195Z,7.37
2019-04-26T01:44:25.081Z,7.73
2019-04-26T01:46:51.740Z,6.60
2019-04-26T01:49:22.332Z,7.27
2019-04-26T01:51:58.666Z,7.73
2019-04-26T01:54:29.817Z,7.83
2019-04-26T01:56:59.861Z,7.57
2019-04-26T01:59:25.945Z,8.50
2019-04-26T02:01:59.722Z,6.57
2019-04-26T02:04:28.016Z,8.67
2019-04-26T02:06:54.344Z,8.23
2019-04-26T02:09:22.908Z,7.40
2019-04-26T02:11:49.377Z,8.43
2019-04-26T02:14:15.665Z,9.00
2019-04-26T02:16:42.004Z,8.27
2019-04-26T02:19:08.451Z,8.80
2019-04-26T02:21:36.781Z,11.73
2019-04-26T02:24:05.032Z,13.57
2019-04-26T02:26:32.730Z,14.07
2019-04-26T02:29:03.589Z,15.17
2019-04-26T02:31:31.466Z,15.53
2019-04-26T02:34:00.444Z,12.43
2019-04-26T02:36:44.995Z,16.53
2019-04-26T02:38:57.832Z,14.93
2019-04-26T02:41:27.474Z,14.17
2019-04-26T02:43:57.040Z,13.67
2019-04-26T02:46:38.079Z,15.47
2019-04-26T02:49:12.339Z,18.07
2019-04-26T02:51:49.507Z,18.03
2019-04-26T02:54:27.901Z,20.00
2019-04-26T02:56:58.731Z,19.60
2019-04-26T02:59:32.520Z,20.70
2019-04-26T03:02:02.299Z,23.93
2019-04-26T03:04:30.521Z,24.87
2019-04-26T03:07:03.394Z,25.13
2019-04-26T03:09:33.807Z,23.97
2019-04-26T03:12:09.847Z,22.97
2019-04-26T03:14:42.009Z,23.30
2019-04-26T03:17:10.985Z,27.63
2019-04-26T03:20:00.450Z,29.03
2019-04-26T03:22:35.260Z,27.63
2019-04-26T03:25:08.389Z,27.00
2019-04-26T03:27:44.570Z,24.20
2019-04-26T03:30:21.417Z,26.07
2019-04-26T03:32:55.827Z,27.37
2019-04-26T03:35:36.955Z,26.93
2019-04-26T03:38:23.120Z,30.67
2019-04-26T03:41:09.890Z,28.80
2019-04-26T03:43:59.656Z,29.77
2019-04-26T03:46:39.734Z,31.27
2019-04-26T03:49:25.441Z,28.40
2019-04-26T03:52:27.727Z,28.80
2019-04-26T03:55:06.515Z,26.80
2019-04-26T03:57:56.316Z,30.20
2019-04-26T04:00:35.231Z,28.40
2019-04-26T04:03:11.140Z,32.77
2019-04-26T04:05:51.654Z,36.07
2019-04-26T04:08:24.568Z,37.10
2019-04-26T04:11:00.076Z,35.97
2019-04-26T04:13:38.862Z,36.53
2019-04-26T04:16:29.432Z,34.33
2019-04-26T04:18:59.436Z,35.43
2019-04-26T04:21:52.690Z,33.93
2019-04-26T04:24:22.630Z,32.57
2019-04-26T04:27:08.142Z,29.47
2019-04-26T04:29:54.657Z,32.93
2019-04-26T04:32:27.583Z,33.03
2019-04-26T04:34:56.613Z,34.87
2019-04-26T04:37:30.794Z,33.83
2019-04-26T04:40:17.502Z,33.10
2019-04-26T04:42:50.329Z,31.73
2019-04-26T04:45:42.533Z,29.43
2019-04-26T04:48:51.159Z,28.80
2019-04-26T04:51:36.178Z,27.50
2019-04-26T04:54:27.680Z,24.93
2019-04-26T04:57:19.057Z,26.10
2019-04-26T04:59:58.082Z,26.50
2019-04-26T05:02:53.464Z,25.53
2019-04-26T05:05:51.148Z,25.03
2019-04-26T05:08:36.363Z,23.10
2019-04-26T05:11:17.827Z,24.63
2019-04-26T05:13:56.900Z,23.87
2019-04-26T05:16:40.684Z,22.47
2019-04-26T05:19:24.302Z,23.77
2019-04-26T05:21:55.103Z,25.77
2019-04-26T05:24:51.266Z,23.90
2019-04-26T05:27:57.188Z,21.87
2019-04-26T05:31:07.456Z,21.33
2019-04-26T05:33:38.093Z,20.53
2019-04-26T05:36:32.007Z,19.63
2019-04-26T05:39:18.580Z,20.40
2019-04-26T05:42:16.827Z,19.83
2019-04-26T05:45:18.907Z,18.37
2019-04-26T05:48:24.642Z,18.03
2019-04-26T05:51:27.160Z,17.27
2019-04-26T05:54:44.919Z,16.20
2019-04-26T05:57:34.984Z,15.00
2019-04-26T06:00:24.631Z,15.57
2019-04-26T06:03:23.835Z,15.23
2019-04-26T06:06:20.030Z,13.27
2019-04-26T06:09:29.705Z,13.73
2019-04-26T06:12:07.032Z,15.07
2019-04-26T06:14:56.838Z,13.53
2019-04-26T06:17:34.958Z,13.07
2019-04-26T06:20:22.807Z,12.73
2019-04-26T06:23:02.132Z,12.43
2019-04-26T06:25:38.201Z,12.30
2019-04-26T06:28:27.896Z,12.20
2019-04-26T06:31:12.911Z,13.50
2019-04-26T06:33:45.374Z,11.23
2019-04-26T06:36:16.438Z,11.63
2019-04-26T06:38:54.668Z,11.73
2019-04-26T06:41:25.715Z,12.10
2019-04-26T06:44:15.551Z,11.17
2019-04-26T06:47:02.345Z,11.80
2019-04-26T06:49:57.744Z,12.60
2019-04-26T06:52:27.672Z,11.33
2019-04-26T06:55:29.384Z,11.47
2019-04-26T06:58:13.078Z,12.23
2019-04-26T07:01:05.481Z,11.53
2019-04-26T07:03:55.444Z,10.50
2019-04-26T07:06:45.145Z,11.50
2019-04-26T07:09:14.910Z,11.90
2019-04-26T07:12:13.547Z,12.47
2019-04-26T07:15:06.524Z,11.97
2019-04-26T07:17:39.558Z,12.17
2019-04-26T07:20:28.865Z,13.47
2019-04-26T07:23:39.277Z,13.47
2019-04-26T07:26:26.133Z,14.00
2019-04-26T07:29:03.076Z,14.40
2019-04-26T07:31:48.482Z,14.33
2019-04-26T07:34:32.610Z,14.90
2019-04-26T07:37:28.402Z,15.07
2019-04-26T07:40:03.238Z,16.57
2019-04-26T07:43:01.730Z,16.00
2019-04-26T07:45:56.544Z,16.00
2019-04-26T07:48:32.607Z,15.63
2019-04-26T07:51:22.882Z,15.57
2019-04-26T07:54:05.087Z,16.13
2019-04-26T07:56:39.265Z,17.17
2019-04-26T07:59:29.250Z,16.33
2019-04-26T08:02:01.244Z,17.80
2019-04-26T08:04:35.124Z,16.60
2019-04-26T08:07:11.119Z,16.87
2019-04-26T08:09:41.154Z,17.63
2019-04-26T08:12:12.221Z,18.43
2019-04-26T08:15:04.743Z,18.50
2019-04-26T08:17:49.959Z,18.23
2019-04-26T08:20:28.251Z,20.37
2019-04-26T08:23:02.628Z,19.20
2019-04-26T08:25:31.515Z,22.37
2019-04-26T08:28:00.071Z,23.63
2019-04-26T08:30:30.653Z,22.13
2019-04-26T08:33:02.162Z,21.30
2019-04-26T08:35:33.762Z,24.23
2019-04-26T08:38:08.281Z,25.53
2019-04-26T08:40:32.827Z,25.23
2019-04-26T08:43:06.720Z,23.83
2019-04-26T08:46:03.116Z,23.07
2019-04-26T08:48:29.384Z,24.03
2019-04-26T08:51:04.865Z,25.07
2019-04-26T08:53:34.647Z,24.50
2019-04-26T08:56:03.807Z,22.77
2019-04-26T08:58:33.884Z,22.63
2019-04-26T09:01:08.450Z,22.00
2019-04-26T09:03:40.433Z,23.87
2019-04-26T09:06:13.885Z,25.37
2019-04-26T09:08:45.009Z,22.50
2019-04-26T09:11:25.570Z,22.23
2019-04-26T09:13:45.634Z,24.47
2019-04-26T09:16:14.878Z,20.63
2019-04-26T09:18:44.146Z,16.60
2019-04-26T09:21:09.608Z,16.53
2019-04-26T09:23:50.832Z,16.60
2019-04-26T09:26:32.823Z,17.23
2019-04-26T09:29:07.001Z,13.87
2019-04-26T09:31:54.607Z,12.37
2019-04-26T09:34:27.598Z,12.90
2019-04-26T09:36:56.130Z,13.03
2019-04-26T09:39:22.674Z,13.97
2019-04-26T09:41:49.107Z,13.13
2019-04-26T09:44:20.077Z,13.23
2019-04-26T09:47:06.777Z,15.07
2019-04-26T09:49:41.119Z,15.90
2019-04-26T09:52:07.949Z,17.47
2019-04-26T09:54:34.121Z,18.13
2019-04-26T09:57:00.257Z,20.07
2019-04-26T09:59:26.453Z,20.27
2019-04-26T10:01:55.465Z,20.03
2019-04-26T10:04:21.009Z,20.80
2019-04-26T10:06:47.230Z,22.10
2019-04-26T10:09:17.336Z,23.70
2019-04-26T10:11:45.738Z,23.40
2019-04-26T10:14:14.034Z,22.87
2019-04-26T10:16:48.230Z,23.97
2019-04-26T10:19:15.458Z,27.07
2019-04-26T10:21:41.594Z,25.60
2019-04-26T10:24:08.713Z,25.80
2019-04-26T10:26:35.069Z,26.57
2019-04-26T10:29:01.607Z,29.77
2019-04-26T10:31:27.975Z,31.07
2019-04-26T10:33:54.193Z,30.30
2019-04-26T10:36:20.545Z,30.90
2019-04-26T10:38:46.812Z,29.43
2019-04-26T10:41:13.337Z,31.47
2019-04-26T10:43:39.531Z,27.80
2019-04-26T10:46:07.230Z,31.40
2019-04-26T10:48:33.566Z,31.90
2019-04-26T10:51:03.376Z,33.60
2019-04-26T10:53:31.928Z,34.23
2019-04-26T10:56:00.285Z,33.30
2019-04-26T10:58:36.293Z,37.50
2019-04-26T11:01:08.312Z,39.83
2019-04-26T11:03:35.097Z,41.90
2019-04-26T11:06:01.412Z,42.57
2019-04-26T11:08:28.094Z,42.40
2019-04-26T11:10:54.564Z,45.37
2019-04-26T11:13:20.980Z,46.20
2019-04-26T11:15:47.941Z,48.80
2019-04-26T11:18:14.258Z,46.20
2019-04-26T11:20:41.523Z,49.83
2019-04-26T11:23:11.793Z,49.67
2019-04-26T11:25:37.205Z,49.23
2019-04-26T11:28:03.532Z,47.93
2019-04-26T11:30:29.862Z,48.63
2019-04-26T11:32:56.279Z,48.53
2019-04-26T11:35:22.655Z,48.13
2019-04-26T11:37:50.722Z,49.67
2019-04-26T11:40:17.182Z,50.07
2019-04-26T11:42:45.768Z,50.83
2019-04-26T11:45:14.584Z,50.50
2019-04-26T11:47:54.217Z,49.70
2019-04-26T11:50:12.432Z,50.00
2019-04-26T11:52:37.422Z,50.03
2019-04-26T11:55:04.861Z,51.33
2019-04-26T11:57:31.293Z,50.73
2019-04-26T11:59:57.454Z,53.73
2019-04-26T12:02:23.663Z,50.77
2019-04-26T12:05:08.659Z,49.70
2019-04-26T12:07:36.781Z,51.07
2019-04-26T12:10:09.773Z,49.60
2019-04-26T12:12:36.839Z,49.77
2019-04-26T12:15:08.435Z,47.77
2019-04-26T12:17:35.147Z,46.50
2019-04-26T12:20:04.623Z,45.30
2019-04-26T12:22:30.954Z,43.00
2019-04-26T12:24:57.521Z,44.13
2019-04-26T12:27:26.499Z,45.17
2019-04-26T12:29:52.200Z,47.53
2019-04-26T12:32:19.849Z,45.13
2019-04-26T12:34:48.106Z,46.00
2019-04-26T12:37:19.881Z,46.53
2019-04-26T12:39:44.402Z,45.47
2019-04-26T12:42:13.846Z,45.83
2019-04-26T12:44:44.841Z,44.27
2019-04-26T12:47:13.016Z,45.23
2019-04-26T12:49:39.272Z,45.20
2019-04-26T12:52:08.317Z,43.53
2019-04-26T12:54:34.670Z,47.63
2019-04-26T12:57:01.585Z,42.30
2019-04-26T12:59:29.490Z,46.57
2019-04-26T13:02:05.510Z,45.23
2019-04-26T13:04:35.577Z,45.60
2019-04-26T13:06:55.123Z,45.90
2019-04-26T13:09:26.158Z,44.17
2019-04-26T13:11:52.826Z,43.87
2019-04-26T13:14:24.713Z,41.77
2019-04-26T13:16:52.798Z,46.40
2019-04-26T13:19:19.855Z,45.00
2019-04-26T13:21:47.387Z,43.83
2019-04-26T13:24:13.934Z,43.73
2019-04-26T13:26:40.814Z,44.63
2019-04-26T13:29:08.172Z,42.97
2019-04-26T13:31:34.413Z,42.93
2019-04-26T13:34:02.954Z,44.97
2019-04-26T13:36:29.407Z,44.33
2019-04-26T13:38:56.975Z,44.93
2019-04-26T13:41:23.368Z,43.13
2019-04-26T13:43:49.892Z,41.67
2019-04-26T13:46:29.060Z,41.87
2019-04-26T13:49:07.470Z,39.97
2019-04-26T13:51:35.681Z,43.97
2019-04-26T13:54:02.201Z,41.90
2019-04-26T13:56:32.124Z,41.80
2019-04-26T13:58:58.373Z,43.53
2019-04-26T14:01:25.164Z,41.77
2019-04-26T14:03:51.405Z,42.47
2019-04-26T14:06:17.798Z,41.13
2019-04-26T14:08:44.050Z,42.33
2019-04-26T14:11:10.292Z,42.47
2019-04-26T14:13:38.014Z,43.70
2019-04-26T14:16:04.450Z,41.13
2019-04-26T14:18:34.675Z,38.57
2019-04-26T14:21:00.173Z,40.20
2019-04-26T14:23:33.461Z,40.50
2019-04-26T14:26:05.091Z,37.47
2019-04-26T14:28:29.410Z,37.33
2019-04-26T14:30:55.762Z,36.73
2019-04-26T14:33:21.995Z,39.37
2019-04-26T14:35:50.761Z,40.00
2019-04-26T14:38:27.258Z,38.20
2019-04-26T14:40:45.816Z,37.90
2019-04-26T14:43:12.355Z,38.47
2019-04-26T14:45:39.969Z,38.20
2019-04-26T14:48:06.632Z,37.43
2019-04-26T14:50:33.617Z,39.53
2019-04-26T14:53:02.504Z,38.57
2019-04-26T14:55:29.800Z,39.10
2019-04-26T14:57:56.060Z,38.97
2019-04-26T15:00:25.138Z,38.60
2019-04-26T15:03:03.263Z,39.50
2019-04-26T15:05:33.211Z,39.57
2019-04-26T15:08:03.939Z,37.73
2019-04-26T15:10:43.439Z,39.00
2019-04-26T15:13:14.925Z,38.07
2019-04-26T15:15:34.644Z,39.40
2019-04-26T15:18:02.952Z,38.27
2019-04-26T15:20:29.469Z,39.23
2019-04-26T15:22:55.817Z,39.07
2019-04-26T15:25:22.178Z,39.40
2019-04-26T15:27:48.634Z,40.23
2019-04-26T15:30:15.103Z,38.40
2019-04-26T15:32:42.685Z,40.33
2019-04-26T15:35:09.951Z,39.27
2019-04-26T15:37:37.202Z,38.27
2019-04-26T15:40:18.638Z,40.97
2019-04-26T15:43:00.848Z,42.63
2019-04-26T15:45:32.637Z,41.07
2019-04-26T15:47:59.401Z,41.80
2019-04-26T15:50:30.144Z,42.83
2019-04-26T15:52:57.434Z,42.53
2019-04-26T15:55:23.794Z,41.60
2019-04-26T15:57:49.992Z,42.03
2019-04-26T16:00:16.434Z,40.43
2019-04-26T16:02:44.712Z,42.27
2019-04-26T16:05:12.855Z,40.97
2019-04-26T16:07:39.336Z,43.80
2019-04-26T16:10:05.973Z,42.70
2019-04-26T16:12:34.874Z,42.23
2019-04-26T16:15:10.714Z,42.07
2019-04-26T16:17:36.187Z,41.93
2019-04-26T16:20:05.569Z,41.60
2019-04-26T16:22:33.185Z,40.33
2019-04-26T16:25:04.005Z,42.80
2019-04-26T16:27:30.903Z,40.23
2019-04-26T16:30:14.457Z,41.60
2019-04-26T16:32:43.307Z,39.77
2019-04-26T16:35:10.222Z,37.87
2019-04-26T16:37:36.563Z,39.30
2019-04-26T16:40:12.227Z,41.03
2019-04-26T16:42:36.036Z,40.83
2019-04-26T16:45:12.290Z,39.70
2019-04-26T16:47:45.043Z,40.03
2019-04-26T16:50:07.628Z,38.97
2019-04-26T16:52:42.284Z,38.07
2019-04-26T16:55:15.322Z,37.27
2019-04-26T16:57:34.053Z,39.80
2019-04-26T17:00:00.444Z,34.33
2019-04-26T17:02:28.740Z,37.67
2019-04-26T17:04:55.202Z,37.70
2019-04-26T17:07:27.022Z,37.20
2019-04-26T17:09:57.298Z,36.00
2019-04-26T17:12:20.055Z,36.07
2019-04-26T17:14:48.716Z,36.57
2019-04-26T17:17:16.336Z,37.17
2019-04-26T17:19:44.693Z,36.20
2019-04-26T17:22:41.887Z,34.37
2019-04-26T17:25:03.192Z,32.33
2019-04-26T17:27:32.877Z,31.57
2019-04-26T17:29:59.431Z,30.67
2019-04-26T17:32:25.875Z,29.83
2019-04-26T17:34:54.418Z,31.13
2019-04-26T17:37:21.791Z,32.13
2019-04-26T17:39:52.218Z,32.13
2019-04-26T17:42:17.026Z,33.03
2019-04-26T17:44:43.437Z,33.90
2019-04-26T17:47:10.542Z,33.57
2019-04-26T17:49:40.234Z,34.30
2019-04-26T17:52:05.329Z,33.57
2019-04-26T17:54:46.090Z,34.43
2019-04-26T17:56:59.944Z,33.57
2019-04-26T17:59:33.486Z,34.33
2019-04-26T18:02:00.733Z,36.80
2019-04-26T18:04:34.533Z,36.43
2019-04-26T18:07:03.014Z,34.73
2019-04-26T18:09:40.521Z,33.83
2019-04-26T18:11:51.140Z,32.70
2019-04-26T18:14:21.471Z,33.93
2019-04-26T18:16:47.649Z,33.10
2019-04-26T18:19:18.447Z,34.90
2019-04-26T18:21:56.482Z,36.67
2019-04-26T18:24:21.257Z,37.33
2019-04-26T18:26:52.295Z,36.83
2019-04-26T18:29:15.919Z,35.80
2019-04-26T18:31:43.809Z,38.30
2019-04-26T18:34:10.251Z,38.67
2019-04-26T18:36:36.636Z,37.97
2019-04-26T18:39:06.112Z,36.77
2019-04-26T18:41:34.005Z,35.70
2019-04-26T18:44:00.915Z,34.73
2019-04-26T18:46:35.852Z,35.83
2019-04-26T18:49:00.345Z,35.87
2019-04-26T18:51:26.664Z,35.57
2019-04-26T18:54:09.376Z,36.97
2019-04-26T18:56:39.462Z,38.50
2019-04-26T18:59:07.277Z,39.73
2019-04-26T19:01:34.673Z,37.17
2019-04-26T19:04:09.577Z,38.33
2019-04-26T19:06:31.879Z,39.17
2019-04-26T19:08:57.539Z,38.87
2019-04-26T19:11:25.687Z,38.90
2019-04-26T19:14:13.410Z,39.63
2019-04-26T19:16:50.629Z,39.70
2019-04-26T19:19:34.975Z,42.13
2019-04-26T19:22:03.435Z,39.33
2019-04-26T19:24:30.853Z,38.67
2019-04-26T19:26:57.412Z,39.77
2019-04-26T19:29:32.745Z,39.80
2019-04-26T19:31:52.341Z,41.27
2019-04-26T19:34:18.905Z,40.90
2019-04-26T19:36:45.402Z,38.43
2019-04-26T19:39:12.284Z,37.80
2019-04-26T19:41:42.037Z,41.53
2019-04-26T19:44:08.708Z,40.37
2019-04-26T19:46:45.799Z,40.80
2019-04-26T19:49:33.274Z,40.07
2019-04-26T19:52:03.972Z,39.67
2019-04-26T19:54:38.517Z,41.30
2019-04-26T19:57:06.372Z,43.67
2019-04-26T19:59:34.643Z,42.40
2019-04-26T20:02:01.648Z,42.03
2019-04-26T20:04:30.823Z,42.60
2019-04-26T20:06:56.276Z,39.43
2019-04-26T20:09:26.337Z,39.03
2019-04-26T20:11:57.781Z,40.07
2019-04-26T20:14:19.350Z,39.90
2019-04-26T20:16:45.705Z,40.87
2019-04-26T20:19:17.548Z,42.93
2019-04-26T20:21:41.411Z,42.47
2019-04-26T20:24:07.807Z,42.27
2019-04-26T20:26:37.404Z,43.47
2019-04-26T20:29:02.393Z,45.67
2019-04-26T20:31:44.946Z,50.00
2019-04-26T20:34:10.836Z,55.63
2019-04-26T20:36:40.734Z,54.93
2019-04-26T20:39:05.966Z,54.33
2019-04-26T20:41:33.715Z,57.23
2019-04-26T20:44:07.333Z,58.17
2019-04-26T20:46:29.647Z,49.30
2019-04-26T20:48:56.449Z,57.10
2019-04-26T20:51:24.216Z,50.77
2019-04-26T20:53:51.837Z,48.87
2019-04-26T20:56:18.732Z,48.17
2019-04-26T20:58:47.006Z,44.63
2019-04-26T21:01:14.276Z,47.93
2019-04-26T21:03:42.843Z,47.67
2019-04-26T21:06:08.961Z,45.87
2019-04-26T21:08:37.156Z,44.60
2019-04-26T21:11:03.746Z,46.23
2019-04-26T21:13:31.131Z,48.27
2019-04-26T21:16:02.721Z,45.83
2019-04-26T21:18:26.528Z,47.83
2019-04-26T21:20:52.599Z,46.80
2019-04-26T21:23:18.729Z,47.03
2019-04-26T21:25:52.808Z,48.30
2019-04-26T21:28:24.156Z,48.90
2019-04-26T21:31:08.768Z,47.17
2019-04-26T21:33:39.832Z,48.73
2019-04-26T21:36:26.454Z,45.87
2019-04-26T21:39:11.009Z,46.93
2019-04-26T21:41:48.296Z,47.13
2019-04-26T21:44:15.712Z,47.63
2019-04-26T21:46:43.472Z,45.40
2019-04-26T21:49:13.634Z,47.43
2019-04-26T21:51:37.818Z,49.70
2019-04-26T21:54:04.148Z,48.43
2019-04-26T21:56:32.042Z,46.57
2019-04-26T21:58:58.552Z,48.67
2019-04-26T22:01:25.261Z,46.80
2019-04-26T22:03:55.465Z,47.93
2019-04-26T22:06:24.212Z,48.07
2019-04-26T22:08:49.941Z,47.37
2019-04-26T22:11:20.048Z,48.00
2019-04-26T22:13:48.993Z,46.40
2019-04-26T22:16:37.417Z,44.37
2019-04-26T22:19:06.567Z,46.80
2019-04-26T22:21:37.370Z,44.87
2019-04-26T22:24:06.668Z,44.67
2019-04-26T22:26:34.017Z,46.37
2019-04-26T22:29:00.324Z,46.73
2019-04-26T22:31:26.815Z,45.50
2019-04-26T22:33:56.003Z,45.20
2019-04-26T22:36:21.321Z,46.20
2019-04-26T22:38:47.545Z,46.13
2019-04-26T22:41:13.839Z,43.93
2019-04-26T22:43:55.239Z,43.43
2019-04-26T22:46:28.413Z,42.03
2019-04-26T22:49:00.997Z,43.40
2019-04-26T22:51:21.111Z,45.20
2019-04-26T22:53:47.423Z,40.97
2019-04-26T22:56:13.740Z,42.10
2019-04-26T22:58:40.086Z,43.50
2019-04-26T23:01:06.566Z,41.80
2019-04-26T23:03:36.564Z,42.10
2019-04-26T23:06:01.345Z,41.97
2019-04-26T23:08:30.823Z,39.60
2019-04-26T23:10:57.605Z,38.90
2019-04-26T23:13:31.408Z,38.47
2019-04-26T23:16:00.747Z,39.60
2019-04-26T23:18:42.903Z,38.70
2019-04-26T23:21:11.934Z,38.27
2019-04-26T23:23:37.134Z,38.90
2019-04-26T23:26:06.158Z,38.67
2019-04-26T23:28:36.844Z,38.47
2019-04-26T23:31:05.585Z,39.00
2019-04-26T23:33:29.362Z,38.33
2019-04-26T23:35:55.490Z,38.43
2019-04-26T23:38:23.410Z,38.23
2019-04-26T23:40:49.738Z,37.13
2019-04-26T23:43:15.964Z,38.23
2019-04-26T23:45:48.300Z,37.37
2019-04-26T23:48:12.093Z,38.23
2019-04-26T23:50:38.733Z,36.43
2019-04-26T23:53:04.949Z,38.67
2019-04-26T23:55:31.171Z,38.73
2019-04-26T23:57:57.287Z,41.07
